createdAt,value
2018-03-26T00:02:07.787Z,64.32
2018-03-26T00:04:36.080Z,64.24
2018-03-26T00:07:05.384Z,63.65
2018-03-26T00:09:33.825Z,63.52
2018-03-26T00:12:02.093Z,63.79
2018-03-26T00:14:30.429Z,63.55
2018-03-26T00:16:58.721Z,63.13
2018-03-26T00:19:27.025Z,62.87
2018-03-26T00:21:55.293Z,63.15
2018-03-26T00:24:23.631Z,63.60
2018-03-26T00:26:51.920Z,63.56
2018-03-26T00:29:20.225Z,63.31
2018-03-26T00:31:48.500Z,63.60
2018-03-26T00:34:16.827Z,63.46
2018-03-26T00:36:55.103Z,63.55
2018-03-26T00:39:23.454Z,63.73
2018-03-26T00:41:51.752Z,63.49
2018-03-26T00:44:20.031Z,63.92
2018-03-26T00:46:48.352Z,64.12
2018-03-26T00:49:16.884Z,64.44
2018-03-26T00:51:45.195Z,64.44
2018-03-26T00:54:13.488Z,64.57
2018-03-26T00:56:41.799Z,64.20
2018-03-26T00:59:10.077Z,64.08
2018-03-26T01:01:38.417Z,64.12
2018-03-26T01:04:06.696Z,64.28
2018-03-26T01:06:35.002Z,64.16
2018-03-26T01:09:03.294Z,63.93
2018-03-26T01:11:31.576Z,64.58
2018-03-26T01:13:59.840Z,65.29
2018-03-26T01:16:28.189Z,65.70
2018-03-26T01:18:56.485Z,65.54
2018-03-26T01:21:24.771Z,65.46
2018-03-26T01:23:53.147Z,65.17
2018-03-26T01:26:21.432Z,65.02
2018-03-26T01:28:49.699Z,65.47
2018-03-26T01:31:18.019Z,65.80
2018-03-26T01:33:46.345Z,65.36
2018-03-26T01:36:14.665Z,65.23
2018-03-26T01:38:43.010Z,64.92
2018-03-26T01:41:11.366Z,63.96
2018-03-26T01:43:39.663Z,63.71
2018-03-26T01:46:07.959Z,64.02
2018-03-26T01:48:36.242Z,64.07
2018-03-26T01:51:04.905Z,64.06
2018-03-26T01:53:33.208Z,64.03
2018-03-26T01:56:01.467Z,63.34
2018-03-26T01:58:29.743Z,63.19
2018-03-26T02:00:58.022Z,63.76
2018-03-26T02:03:26.335Z,63.81
2018-03-26T02:05:54.883Z,63.83
2018-03-26T02:08:23.181Z,64.54
2018-03-26T02:10:51.466Z,64.42
2018-03-26T02:13:19.807Z,63.71
2018-03-26T02:15:48.762Z,63.89
2018-03-26T02:18:17.848Z,63.76
2018-03-26T02:20:46.102Z,64.49
2018-03-26T02:23:14.414Z,65.69
2018-03-26T02:25:42.707Z,66.47
2018-03-26T02:28:10.980Z,65.83
2018-03-26T02:30:39.271Z,65.27
2018-03-26T02:33:07.564Z,64.80
2018-03-26T02:35:35.834Z,64.66
2018-03-26T02:38:04.843Z,64.23
2018-03-26T02:40:33.132Z,63.65
2018-03-26T02:43:01.412Z,63.72
2018-03-26T02:45:29.696Z,63.90
2018-03-26T02:47:57.995Z,64.06
2018-03-26T02:50:26.324Z,64.22
2018-03-26T02:52:54.578Z,64.38
2018-03-26T02:55:22.902Z,64.05
2018-03-26T02:57:51.173Z,64.26
2018-03-26T03:00:19.483Z,64.28
2018-03-26T03:02:47.956Z,64.21
2018-03-26T03:05:16.258Z,64.75
2018-03-26T03:07:44.514Z,65.08
2018-03-26T03:10:12.821Z,64.78
2018-03-26T03:12:41.128Z,64.38
2018-03-26T03:15:09.522Z,64.45
2018-03-26T03:17:37.815Z,63.83
2018-03-26T03:20:06.096Z,63.83
2018-03-26T03:22:34.437Z,63.80
2018-03-26T03:25:03.303Z,63.44
2018-03-26T03:27:31.560Z,63.73
2018-03-26T03:29:59.853Z,64.17
2018-03-26T03:32:28.156Z,64.11
2018-03-26T03:34:56.436Z,64.32
2018-03-26T03:37:24.727Z,64.57
2018-03-26T03:39:53.011Z,64.42
2018-03-26T03:42:21.292Z,64.53
2018-03-26T03:44:49.615Z,64.21
2018-03-26T03:47:17.932Z,64.39
2018-03-26T03:49:46.197Z,64.54
2018-03-26T03:52:14.490Z,64.85
2018-03-26T03:54:42.791Z,64.84
2018-03-26T03:57:11.116Z,64.65
2018-03-26T03:59:39.445Z,64.64
2018-03-26T04:02:07.767Z,64.55
2018-03-26T04:04:36.077Z,64.41
2018-03-26T04:07:04.364Z,64.50
2018-03-26T04:09:32.684Z,64.27
2018-03-26T04:12:01.032Z,64.25
2018-03-26T04:14:29.298Z,64.18
2018-03-26T04:16:57.651Z,64.30
2018-03-26T04:19:25.944Z,64.86
2018-03-26T04:21:54.266Z,64.78
2018-03-26T04:24:23.132Z,64.79
2018-03-26T04:26:51.425Z,65.16
2018-03-26T04:29:19.701Z,65.23
2018-03-26T04:31:48.002Z,65.26
2018-03-26T04:34:16.271Z,65.26
2018-03-26T04:36:44.591Z,64.92
2018-03-26T04:39:12.874Z,64.99
2018-03-26T04:41:41.249Z,64.89
2018-03-26T04:44:09.512Z,64.62
2018-03-26T04:46:37.806Z,64.49
2018-03-26T04:49:06.115Z,64.44
2018-03-26T04:51:34.366Z,64.53
2018-03-26T04:54:02.683Z,64.86
2018-03-26T04:56:30.987Z,64.69
2018-03-26T04:58:59.274Z,64.70
2018-03-26T05:01:27.540Z,64.69
2018-03-26T05:03:55.874Z,64.63
2018-03-26T05:06:24.150Z,65.07
2018-03-26T05:08:52.544Z,64.95
2018-03-26T05:11:20.800Z,64.97
2018-03-26T05:13:49.127Z,64.89
2018-03-26T05:16:17.448Z,64.91
2018-03-26T05:18:45.744Z,64.92
2018-03-26T05:21:14.032Z,65.24
2018-03-26T05:23:43.317Z,65.46
2018-03-26T05:26:11.755Z,65.48
2018-03-26T05:28:40.077Z,65.16
2018-03-26T05:31:08.406Z,65.31
2018-03-26T05:33:36.686Z,65.23
2018-03-26T05:36:05.076Z,65.37
2018-03-26T05:38:33.365Z,65.14
2018-03-26T05:41:01.678Z,64.97
2018-03-26T05:43:29.981Z,65.05
2018-03-26T05:45:58.279Z,65.04
2018-03-26T05:48:26.587Z,65.14
2018-03-26T05:50:54.868Z,65.12
2018-03-26T05:53:23.145Z,65.34
2018-03-26T05:55:51.488Z,65.52
2018-03-26T05:58:19.744Z,65.10
2018-03-26T06:00:48.106Z,64.99
2018-03-26T06:03:16.391Z,64.84
2018-03-26T06:05:44.721Z,65.03
2018-03-26T06:08:13.014Z,65.01
2018-03-26T06:10:41.314Z,65.14
2018-03-26T06:13:09.622Z,65.17
2018-03-26T06:15:38.934Z,64.86
2018-03-26T06:18:07.288Z,64.83
2018-03-26T06:20:35.655Z,64.62
2018-03-26T06:23:04.952Z,64.55
2018-03-26T06:25:34.857Z,64.47
2018-03-26T06:28:03.142Z,64.44
2018-03-26T06:30:31.526Z,64.31
2018-03-26T06:32:59.779Z,64.20
2018-03-26T06:35:28.081Z,64.10
2018-03-26T06:40:57.986Z,64.22
2018-03-26T06:43:26.242Z,63.87
2018-03-26T06:45:54.644Z,63.85
2018-03-26T06:48:22.938Z,64.04
2018-03-26T06:50:51.332Z,63.90
2018-03-26T06:53:19.788Z,64.07
2018-03-26T06:55:48.087Z,64.27
2018-03-26T06:58:16.403Z,64.44
2018-03-26T07:00:44.712Z,64.08
2018-03-26T07:03:13.089Z,63.97
2018-03-26T07:05:41.397Z,64.21
2018-03-26T07:11:05.603Z,64.41
2018-03-26T07:13:34.787Z,64.25
2018-03-26T07:16:03.092Z,64.37
2018-03-26T07:18:31.449Z,64.18
2018-03-26T07:20:59.920Z,64.10
2018-03-26T07:23:28.240Z,64.15
2018-03-26T07:25:59.939Z,64.10
2018-03-26T07:28:29.235Z,63.95
2018-03-26T07:30:57.610Z,63.89
2018-03-26T07:33:25.978Z,64.18
2018-03-26T07:35:54.280Z,63.95
2018-03-26T07:38:22.665Z,63.49
2018-03-26T07:40:50.990Z,64.34
2018-03-26T07:43:19.447Z,64.90
2018-03-26T07:45:47.821Z,64.64
2018-03-26T07:48:16.205Z,64.37
2018-03-26T07:50:44.591Z,63.37
2018-03-26T07:53:12.911Z,62.88
2018-03-26T07:55:41.295Z,63.12
2018-03-26T07:58:09.597Z,63.26
2018-03-26T08:00:37.945Z,62.94
2018-03-26T08:03:06.485Z,62.79
2018-03-26T08:05:34.790Z,62.69
2018-03-26T08:08:03.504Z,62.45
2018-03-26T08:10:34.507Z,62.70
2018-03-26T08:13:03.132Z,62.71
2018-03-26T08:15:31.514Z,62.60
2018-03-26T08:17:59.875Z,62.48
2018-03-26T08:20:28.156Z,62.31
2018-03-26T08:22:56.498Z,62.17
2018-03-26T08:25:24.815Z,62.23
2018-03-26T08:27:53.960Z,61.76
2018-03-26T08:30:22.263Z,61.29
2018-03-26T08:32:50.551Z,60.70
2018-03-26T08:35:18.841Z,60.19
2018-03-26T08:37:47.192Z,60.13
2018-03-26T08:40:15.564Z,59.87
2018-03-26T08:42:43.873Z,59.49
2018-03-26T08:45:12.194Z,59.19
2018-03-26T08:47:40.508Z,59.15
2018-03-26T08:50:09.750Z,59.24
2018-03-26T08:52:37.974Z,59.08
2018-03-26T08:55:06.424Z,59.03
2018-03-26T08:57:34.745Z,58.86
2018-03-26T09:00:03.117Z,58.30
2018-03-26T09:02:31.539Z,57.82
2018-03-26T09:05:00.049Z,57.82
2018-03-26T09:07:28.472Z,58.30
2018-03-26T09:09:56.862Z,58.39
2018-03-26T09:12:25.152Z,57.45
2018-03-26T09:14:53.428Z,57.22
2018-03-26T09:17:21.837Z,57.40
2018-03-26T09:19:50.152Z,56.63
2018-03-26T09:22:18.668Z,56.71
2018-03-26T09:24:47.043Z,56.16
2018-03-26T09:27:16.647Z,56.12
2018-03-26T09:29:44.984Z,54.85
2018-03-26T09:32:13.457Z,53.50
2018-03-26T09:34:41.839Z,53.99
2018-03-26T09:37:10.188Z,54.49
2018-03-26T09:39:38.508Z,54.75
2018-03-26T09:42:07.250Z,54.78
2018-03-26T09:44:35.619Z,54.46
2018-03-26T09:47:03.936Z,53.76
2018-03-26T09:49:32.961Z,53.35
2018-03-26T09:52:01.275Z,54.01
2018-03-26T09:54:29.603Z,53.42
2018-03-26T09:56:57.935Z,52.56
2018-03-26T09:59:26.760Z,52.56
2018-03-26T10:01:57.962Z,51.80
2018-03-26T10:04:26.308Z,51.27
2018-03-26T10:06:54.613Z,50.68
2018-03-26T10:09:23.033Z,50.73
2018-03-26T10:11:51.427Z,49.83
2018-03-26T10:14:19.783Z,51.07
2018-03-26T10:16:48.089Z,51.20
2018-03-26T10:19:16.636Z,50.71
2018-03-26T10:21:44.941Z,50.24
2018-03-26T10:24:13.290Z,49.71
2018-03-26T10:26:41.698Z,50.25
2018-03-26T10:29:10.053Z,49.97
2018-03-26T10:31:38.426Z,49.73
2018-03-26T10:34:06.804Z,49.60
2018-03-26T10:36:35.105Z,49.78
2018-03-26T10:39:03.653Z,49.29
2018-03-26T10:41:32.031Z,48.92
2018-03-26T10:44:00.408Z,49.97
2018-03-26T10:46:28.726Z,49.82
2018-03-26T10:48:57.081Z,49.87
2018-03-26T10:51:25.464Z,49.50
2018-03-26T10:56:46.830Z,49.15
2018-03-26T10:59:16.440Z,49.61
2018-03-26T11:01:44.772Z,49.63
2018-03-26T11:04:14.436Z,49.77
2018-03-26T11:06:42.803Z,50.13
2018-03-26T11:09:11.226Z,50.92
2018-03-26T11:11:39.675Z,50.15
2018-03-26T11:14:08.379Z,49.66
2018-03-26T11:16:36.673Z,49.86
2018-03-26T11:19:05.609Z,49.73
2018-03-26T11:21:33.920Z,49.74
2018-03-26T11:24:02.245Z,49.51
2018-03-26T11:26:30.614Z,49.17
2018-03-26T11:28:58.923Z,47.85
2018-03-26T11:31:27.247Z,47.62
2018-03-26T11:33:55.714Z,47.83
2018-03-26T11:36:24.120Z,48.19
2018-03-26T11:38:55.488Z,48.01
2018-03-26T11:41:25.571Z,47.96
2018-03-26T11:43:58.594Z,48.48
2018-03-26T11:46:26.973Z,47.66
2018-03-26T11:48:55.493Z,49.18
2018-03-26T11:51:23.887Z,50.03
2018-03-26T11:53:52.173Z,49.84
2018-03-26T11:56:20.525Z,49.92
2018-03-26T11:58:48.852Z,50.21
2018-03-26T12:01:17.164Z,49.66
2018-03-26T12:03:45.684Z,49.95
2018-03-26T12:06:14.059Z,50.19
2018-03-26T12:08:42.460Z,49.15
2018-03-26T12:11:11.553Z,48.16
2018-03-26T12:13:39.885Z,47.78
2018-03-26T12:16:08.187Z,46.78
2018-03-26T12:18:36.538Z,45.81
2018-03-26T12:21:04.888Z,45.62
2018-03-26T12:23:45.048Z,45.16
2018-03-26T12:26:13.515Z,45.51
2018-03-26T12:28:53.602Z,46.53
2018-03-26T12:31:21.950Z,46.07
2018-03-26T12:36:53.810Z,45.55
2018-03-26T12:39:22.793Z,45.23
2018-03-26T12:41:51.095Z,44.69
2018-03-26T12:44:31.328Z,45.84
2018-03-26T12:46:59.682Z,46.04
2018-03-26T12:49:28.034Z,45.77
2018-03-26T12:52:07.997Z,45.14
2018-03-26T12:54:36.319Z,44.23
2018-03-26T12:57:17.076Z,43.77
2018-03-26T12:59:45.455Z,41.80
2018-03-26T13:02:29.683Z,42.51
2018-03-26T13:04:58.112Z,42.36
2018-03-26T13:07:26.463Z,41.99
2018-03-26T13:09:54.800Z,42.35
2018-03-26T13:12:23.179Z,42.16
2018-03-26T13:14:51.531Z,42.74
2018-03-26T13:17:20.594Z,43.38
2018-03-26T13:19:48.978Z,43.85
2018-03-26T13:22:17.305Z,44.18
2018-03-26T13:24:45.664Z,44.16
2018-03-26T13:27:14.017Z,43.21
2018-03-26T13:29:42.372Z,42.96
2018-03-26T13:32:10.709Z,42.36
2018-03-26T13:34:39.120Z,41.89
2018-03-26T13:37:07.480Z,41.65
2018-03-26T13:39:35.850Z,42.06
2018-03-26T13:42:04.190Z,43.34
2018-03-26T13:44:33.368Z,42.62
2018-03-26T13:47:02.418Z,43.18
2018-03-26T13:49:30.994Z,43.62
2018-03-26T13:51:59.324Z,43.29
2018-03-26T13:54:27.827Z,43.74
2018-03-26T13:56:56.129Z,43.69
2018-03-26T13:59:24.536Z,43.58
2018-03-26T14:01:53.351Z,42.99
2018-03-26T14:04:21.706Z,41.67
2018-03-26T14:06:50.152Z,41.89
2018-03-26T14:09:30.205Z,41.69
2018-03-26T14:12:10.597Z,42.57
2018-03-26T14:17:49.680Z,41.21
2018-03-26T14:20:18.220Z,40.85
2018-03-26T14:22:46.556Z,40.93
2018-03-26T14:25:14.876Z,41.41
2018-03-26T14:27:43.173Z,41.70
2018-03-26T14:30:11.529Z,41.39
2018-03-26T14:32:40.733Z,41.44
2018-03-26T14:38:11.239Z,51.67
2018-03-26T14:40:39.611Z,55.49
2018-03-26T14:43:08.001Z,56.98
2018-03-26T14:45:36.849Z,59.04
2018-03-26T14:48:05.226Z,59.00
2018-03-26T14:50:33.596Z,59.45
2018-03-26T14:53:01.999Z,58.44
2018-03-26T14:55:30.861Z,57.65
2018-03-26T14:57:59.232Z,58.07
2018-03-26T15:00:27.531Z,57.88
2018-03-26T15:02:56.798Z,56.89
2018-03-26T15:05:25.134Z,56.40
2018-03-26T15:07:53.803Z,57.02
2018-03-26T15:10:22.817Z,57.15
2018-03-26T15:12:51.751Z,56.88
2018-03-26T15:15:20.480Z,56.91
2018-03-26T15:17:48.823Z,57.43
2018-03-26T15:20:17.251Z,55.92
2018-03-26T15:22:45.637Z,54.34
2018-03-26T15:25:14.055Z,55.97
2018-03-26T15:27:42.432Z,57.25
2018-03-26T15:30:11.110Z,56.82
2018-03-26T15:32:39.442Z,56.83
2018-03-26T15:35:07.774Z,57.12
2018-03-26T15:37:36.162Z,57.11
2018-03-26T15:40:05.044Z,56.96
2018-03-26T15:42:33.417Z,57.56
2018-03-26T15:45:01.790Z,59.18
2018-03-26T15:47:30.179Z,58.82
2018-03-26T15:49:58.502Z,59.68
2018-03-26T15:52:26.856Z,59.43
2018-03-26T15:54:55.416Z,58.54
2018-03-26T15:57:23.724Z,58.05
2018-03-26T15:59:52.082Z,58.64
2018-03-26T16:02:21.580Z,58.41
2018-03-26T16:04:49.989Z,59.07
2018-03-26T16:07:18.233Z,59.13
2018-03-26T16:09:46.560Z,59.58
2018-03-26T16:12:14.856Z,59.95
2018-03-26T16:14:44.008Z,65.44
2018-03-26T16:17:12.390Z,62.44
2018-03-26T16:19:40.835Z,57.50
2018-03-26T16:22:09.133Z,54.97
2018-03-26T16:24:37.475Z,51.87
2018-03-26T16:27:05.919Z,47.85
2018-03-26T16:29:34.392Z,47.40
2018-03-26T16:32:03.477Z,48.00
2018-03-26T16:34:32.516Z,49.26
2018-03-26T16:37:01.140Z,50.81
2018-03-26T16:39:30.675Z,51.73
2018-03-26T16:42:11.019Z,52.94
2018-03-26T16:44:39.393Z,54.12
2018-03-26T16:47:07.733Z,55.20
2018-03-26T16:49:36.144Z,57.34
2018-03-26T16:52:04.524Z,55.83
2018-03-26T16:54:32.968Z,56.04
2018-03-26T16:57:01.320Z,56.62
2018-03-26T16:59:29.586Z,57.21
2018-03-26T17:01:57.946Z,56.18
2018-03-26T17:04:26.262Z,56.16
2018-03-26T17:06:54.677Z,57.20
2018-03-26T17:09:22.977Z,56.86
2018-03-26T17:11:51.542Z,57.12
2018-03-26T17:14:20.554Z,57.43
2018-03-26T17:16:48.896Z,54.85
2018-03-26T17:19:17.973Z,55.65
2018-03-26T17:21:46.264Z,55.49
2018-03-26T17:24:14.569Z,55.19
2018-03-26T17:26:42.899Z,53.65
2018-03-26T17:29:11.211Z,53.38
2018-03-26T17:31:39.525Z,53.50
2018-03-26T17:34:08.209Z,54.46
2018-03-26T17:36:36.596Z,54.86
2018-03-26T17:39:05.920Z,55.04
2018-03-26T17:41:37.452Z,55.00
2018-03-26T17:44:06.869Z,54.68
2018-03-26T17:46:35.178Z,54.15
2018-03-26T17:49:03.748Z,54.64
2018-03-26T17:51:32.927Z,55.49
2018-03-26T17:54:01.266Z,54.73
2018-03-26T17:56:29.597Z,55.62
2018-03-26T17:58:57.950Z,56.60
2018-03-26T18:01:26.256Z,55.67
2018-03-26T18:03:54.586Z,55.89
2018-03-26T18:06:22.887Z,55.76
2018-03-26T18:08:51.245Z,55.93
2018-03-26T18:11:19.573Z,56.25
2018-03-26T18:13:47.943Z,55.80
2018-03-26T18:16:16.232Z,55.73
2018-03-26T18:18:44.555Z,55.49
2018-03-26T18:21:12.895Z,54.28
2018-03-26T18:23:42.005Z,53.79
2018-03-26T18:26:10.328Z,53.38
2018-03-26T18:28:38.635Z,52.50
2018-03-26T18:31:06.901Z,53.12
2018-03-26T18:33:35.282Z,53.06
2018-03-26T18:36:03.849Z,53.00
2018-03-26T18:38:32.239Z,53.10
2018-03-26T18:41:00.577Z,53.00
2018-03-26T18:43:28.936Z,52.17
2018-03-26T18:45:57.235Z,52.60
2018-03-26T18:48:25.614Z,52.49
2018-03-26T18:50:53.968Z,52.59
2018-03-26T18:53:22.327Z,52.44
2018-03-26T18:55:50.650Z,52.38
2018-03-26T18:58:18.947Z,52.46
2018-03-26T19:00:47.336Z,52.67
2018-03-26T19:03:15.670Z,52.41
2018-03-26T19:05:43.977Z,52.44
2018-03-26T19:08:12.249Z,52.72
2018-03-26T19:10:40.600Z,52.67
2018-03-26T19:13:08.890Z,51.92
2018-03-26T19:15:37.301Z,52.16
2018-03-26T19:18:05.654Z,55.58
2018-03-26T19:20:34.074Z,58.72
2018-03-26T19:23:02.438Z,60.04
2018-03-26T19:25:30.732Z,60.71
2018-03-26T19:27:59.034Z,60.48
2018-03-26T19:30:27.370Z,60.74
2018-03-26T19:32:55.962Z,60.76
2018-03-26T19:35:24.312Z,61.07
2018-03-26T19:37:52.679Z,60.91
2018-03-26T19:40:20.996Z,61.19
2018-03-26T19:42:50.102Z,60.99
2018-03-26T19:45:19.392Z,60.87
2018-03-26T19:47:47.725Z,60.32
2018-03-26T19:50:16.323Z,60.47
2018-03-26T19:52:44.894Z,60.04
2018-03-26T19:55:13.159Z,59.95
2018-03-26T19:57:41.503Z,59.96
2018-03-26T20:00:10.326Z,60.25
2018-03-26T20:02:38.666Z,60.58
2018-03-26T20:05:07.070Z,60.12
2018-03-26T20:07:35.396Z,63.70
2018-03-26T20:10:04.874Z,66.89
2018-03-26T20:12:33.171Z,67.65
2018-03-26T20:15:01.468Z,68.17
2018-03-26T20:17:29.799Z,68.96
2018-03-26T20:19:58.109Z,69.53
2018-03-26T20:22:26.442Z,69.48
2018-03-26T20:24:54.729Z,69.67
2018-03-26T20:27:23.136Z,70.11
2018-03-26T20:29:51.417Z,70.01
2018-03-26T20:32:19.798Z,69.97
2018-03-26T20:34:48.420Z,69.87
2018-03-26T20:37:16.761Z,69.92
2018-03-26T20:39:45.020Z,70.41
2018-03-26T20:42:13.341Z,70.72
2018-03-26T20:44:41.755Z,70.81
2018-03-26T20:47:10.093Z,70.44
2018-03-26T20:49:38.416Z,70.56
2018-03-26T20:52:06.704Z,70.27
2018-03-26T20:54:35.336Z,70.64
2018-03-26T20:57:03.645Z,71.06
2018-03-26T20:59:31.944Z,71.11
2018-03-26T21:02:00.452Z,70.97
2018-03-26T21:04:28.774Z,71.08
2018-03-26T21:06:57.067Z,71.25
2018-03-26T21:09:25.434Z,71.25
2018-03-26T21:11:53.776Z,71.42
2018-03-26T21:14:22.193Z,71.08
2018-03-26T21:16:50.468Z,70.83
2018-03-26T21:19:18.764Z,71.02
2018-03-26T21:21:47.143Z,71.13
2018-03-26T21:24:15.471Z,72.52
2018-03-26T21:26:43.806Z,72.70
2018-03-26T21:29:12.164Z,72.61
2018-03-26T21:31:40.449Z,72.02
2018-03-26T21:34:09.488Z,72.11
2018-03-26T21:36:37.792Z,72.05
2018-03-26T21:39:06.197Z,71.81
2018-03-26T21:41:34.486Z,72.18
2018-03-26T21:44:02.751Z,72.38
2018-03-26T21:46:31.204Z,72.13
2018-03-26T21:48:59.546Z,72.03
2018-03-26T21:51:27.867Z,72.49
2018-03-26T21:53:56.157Z,72.52
2018-03-26T21:56:24.532Z,72.99
2018-03-26T21:58:52.857Z,73.43
2018-03-26T22:01:21.210Z,73.57
2018-03-26T22:03:49.521Z,73.39
2018-03-26T22:06:17.892Z,73.34
2018-03-26T22:08:46.230Z,73.39
2018-03-26T22:11:15.362Z,73.59
2018-03-26T22:13:43.642Z,73.21
2018-03-26T22:16:11.994Z,73.53
2018-03-26T22:18:45.319Z,73.39
2018-03-26T22:21:13.636Z,73.04
2018-03-26T22:23:41.917Z,73.57
2018-03-26T22:26:10.244Z,73.85
2018-03-26T22:28:38.561Z,73.95
2018-03-26T22:31:06.880Z,73.83
2018-03-26T22:33:35.185Z,73.67
2018-03-26T22:36:04.196Z,73.50
2018-03-26T22:38:32.516Z,73.89
2018-03-26T22:41:00.793Z,73.96
2018-03-26T22:43:29.186Z,73.45
2018-03-26T22:45:57.495Z,73.16
2018-03-26T22:48:25.780Z,73.47
2018-03-26T22:50:54.127Z,73.66
2018-03-26T22:53:22.442Z,73.07
2018-03-26T22:55:50.713Z,72.57
2018-03-26T22:58:19.091Z,72.21
2018-03-26T23:00:47.379Z,72.02
2018-03-26T23:03:15.728Z,71.83
2018-03-26T23:05:44.024Z,71.81
2018-03-26T23:08:12.341Z,71.29
2018-03-26T23:10:40.652Z,71.68
2018-03-26T23:13:08.952Z,71.09
2018-03-26T23:15:37.221Z,71.21
2018-03-26T23:18:05.597Z,71.17
2018-03-26T23:20:33.884Z,71.44
2018-03-26T23:23:02.244Z,71.37
2018-03-26T23:25:30.527Z,71.51
2018-03-26T23:27:58.863Z,71.33
2018-03-26T23:30:27.715Z,71.58
2018-03-26T23:32:56.069Z,71.38
2018-03-26T23:35:24.349Z,72.59
2018-03-26T23:37:52.663Z,72.79
2018-03-26T23:40:20.987Z,72.51
2018-03-26T23:42:49.363Z,72.78
2018-03-26T23:45:17.725Z,71.73
2018-03-26T23:47:46.021Z,71.16
2018-03-26T23:50:14.332Z,71.17
2018-03-26T23:52:42.617Z,71.01
2018-03-26T23:55:10.927Z,70.93
2018-03-26T23:57:39.252Z,70.96
